Verhneimbatsk, Russia
Current Conditions -  °F | °C
As of 7:00 AM on Monday 22 Dec 2014 (Local Time) from USNN Reporting Station
Blowing Snow Blowing Snow  
Wind Chill: 10°   Ceiling: 1100
Heat Index: 23°   Visibility: 6mi
Dew Point: 18°   Wind: 16mph
Humidity: 80%   Direction: 190°S
Pressure: 29.59"   Gusts: NA
Location:  63.15°N, 87.95°E
Report Text: USNN 220000Z 19007MPS 9999 DRSN OVC011 M05/M08 Q1002 NOSIG RMKQFE747 21610338
Loading
Personal Weather Stations






























Interactive Weather Map New forecast layout! Learn more

10-Day Weather Forecast

Advertisements
Track Severe Weather on mobile